createdAt,value
2018-01-14T00:00:29.003Z,89.63
2018-01-14T00:01:28.916Z,89.34
2018-01-14T00:03:22.274Z,89.53
2018-01-14T00:04:22.089Z,89.44
2018-01-14T00:06:15.357Z,89.34
2018-01-14T00:07:15.266Z,89.25
2018-01-14T00:09:08.516Z,89.44
2018-01-14T00:10:08.445Z,89.25
2018-01-14T00:12:01.707Z,89.44
2018-01-14T00:13:01.623Z,89.53
2018-01-14T00:14:54.890Z,89.25
2018-01-14T00:15:54.800Z,89.44
2018-01-14T00:17:48.052Z,89.44
2018-01-14T00:18:47.977Z,89.63
2018-01-14T00:20:41.246Z,89.53
2018-01-14T00:21:41.154Z,89.53
2018-01-14T00:23:34.404Z,90.20
2018-01-14T00:24:34.329Z,89.82
2018-01-14T00:26:27.603Z,89.53
2018-01-14T00:27:27.510Z,89.25
2018-01-14T00:29:20.755Z,89.53
2018-01-14T00:30:20.682Z,90.01
2018-01-14T00:32:13.956Z,90.01
2018-01-14T00:33:13.865Z,89.82
2018-01-14T00:35:07.132Z,90.20
2018-01-14T00:36:07.041Z,90.01
2018-01-14T00:38:00.380Z,89.91
2018-01-14T00:39:00.303Z,89.91
2018-01-14T00:40:53.685Z,89.44
2018-01-14T00:41:53.470Z,89.44
2018-01-14T00:43:46.716Z,89.49
2018-01-14T00:44:46.645Z,90.06
2018-01-14T00:46:39.914Z,90.34
2018-01-14T00:47:39.823Z,90.25
2018-01-14T00:49:33.194Z,90.15
2018-01-14T00:50:32.997Z,89.87
2018-01-14T00:52:26.259Z,90.44
2018-01-14T00:53:26.165Z,90.15
2018-01-14T00:55:19.547Z,90.44
2018-01-14T00:56:19.342Z,90.81
2018-01-14T00:58:12.596Z,90.81
2018-01-14T00:59:12.520Z,90.81
2018-01-14T01:01:05.896Z,90.81
2018-01-14T01:02:05.688Z,90.81
2018-01-14T01:03:59.059Z,90.63
2018-01-14T01:04:58.874Z,90.81
2018-01-14T01:06:52.141Z,90.44
2018-01-14T01:07:52.047Z,90.63
2018-01-14T01:09:45.426Z,90.63
2018-01-14T01:10:45.235Z,90.44
2018-01-14T01:12:38.465Z,91.38
2018-01-14T01:13:38.388Z,91.38
2018-01-14T01:15:31.774Z,91.29
2018-01-14T01:16:31.566Z,91.57
2018-01-14T01:18:24.816Z,91.48
2018-01-14T01:19:24.740Z,91.19
2018-01-14T01:21:18.011Z,91.00
2018-01-14T01:22:17.918Z,91.00
2018-01-14T01:24:11.168Z,91.10
2018-01-14T01:25:11.095Z,91.00
2018-01-14T01:27:04.398Z,91.29
2018-01-14T01:28:04.303Z,91.29
2018-01-14T01:29:57.665Z,91.57
2018-01-14T01:30:57.470Z,91.38
2018-01-14T01:32:50.738Z,91.29
2018-01-14T01:33:50.646Z,91.19
2018-01-14T01:35:44.028Z,91.57
2018-01-14T01:36:43.820Z,91.19
2018-01-14T01:38:37.076Z,91.19
2018-01-14T01:39:37.022Z,91.00
2018-01-14T01:41:30.265Z,91.29
2018-01-14T01:42:30.174Z,91.57
2018-01-14T01:44:23.535Z,91.57
2018-01-14T01:45:23.349Z,91.29
2018-01-14T01:47:16.620Z,91.48
2018-01-14T01:48:16.524Z,91.76
2018-01-14T01:50:09.887Z,91.29
2018-01-14T01:51:09.690Z,91.86
2018-01-14T01:53:02.959Z,91.76
2018-01-14T01:54:02.865Z,91.57
2018-01-14T01:55:56.230Z,91.86
2018-01-14T01:56:56.040Z,91.95
2018-01-14T01:58:49.308Z,91.95
2018-01-14T01:59:49.216Z,91.86
2018-01-14T02:01:42.474Z,92.05
2018-01-14T02:02:42.383Z,91.48
2018-01-14T02:04:35.635Z,91.95
2018-01-14T02:05:35.556Z,91.86
2018-01-14T02:07:28.823Z,92.14
2018-01-14T02:08:28.730Z,91.86
2018-01-14T02:10:21.976Z,92.05
2018-01-14T02:11:21.899Z,92.33
2018-01-14T02:13:15.156Z,92.05
2018-01-14T02:14:15.064Z,91.95
2018-01-14T02:16:08.404Z,92.43
2018-01-14T02:17:08.304Z,91.67
2018-01-14T02:19:01.552Z,91.86
2018-01-14T02:20:01.481Z,92.05
2018-01-14T02:21:54.746Z,91.57
2018-01-14T02:22:54.656Z,91.57
2018-01-14T02:24:47.907Z,91.76
2018-01-14T02:25:47.831Z,91.19
2018-01-14T02:27:41.101Z,92.05
2018-01-14T02:28:41.008Z,91.95
2018-01-14T02:30:34.247Z,91.67
2018-01-14T02:31:34.177Z,91.57
2018-01-14T02:33:27.552Z,91.29
2018-01-14T02:34:27.346Z,91.19
2018-01-14T02:36:20.616Z,91.29
2018-01-14T02:37:20.523Z,91.19
2018-01-14T02:39:13.886Z,91.10
2018-01-14T02:40:13.700Z,91.00
2018-01-14T02:42:06.976Z,91.29
2018-01-14T02:43:06.877Z,90.63
2018-01-14T02:45:00.242Z,91.10
2018-01-14T02:46:00.047Z,91.57
2018-01-14T02:47:53.313Z,91.00
2018-01-14T02:48:53.228Z,91.29
2018-01-14T02:50:46.475Z,91.57
2018-01-14T02:51:46.396Z,91.38
2018-01-14T02:53:39.655Z,91.48
2018-01-14T02:54:39.562Z,91.38
2018-01-14T02:56:32.945Z,91.29
2018-01-14T02:57:32.736Z,91.00
2018-01-14T02:59:26.977Z,91.67
2018-01-14T03:00:26.903Z,91.19
2018-01-14T03:02:20.171Z,91.48
2018-01-14T03:03:20.084Z,91.10
2018-01-14T03:05:13.328Z,90.72
2018-01-14T03:06:13.256Z,90.91
2018-01-14T03:08:06.523Z,90.72
2018-01-14T03:09:06.431Z,90.81
2018-01-14T03:10:59.682Z,90.81
2018-01-14T03:11:59.608Z,90.81
2018-01-14T03:13:52.877Z,91.67
2018-01-14T03:14:52.784Z,91.29
2018-01-14T03:16:46.164Z,90.91
2018-01-14T03:17:45.962Z,90.91
2018-01-14T03:19:39.320Z,91.10
2018-01-14T03:20:39.126Z,90.91
2018-01-14T03:22:32.398Z,90.63
2018-01-14T03:23:32.313Z,90.81
2018-01-14T03:25:25.546Z,90.81
2018-01-14T03:26:25.471Z,90.72
2018-01-14T03:28:18.729Z,90.44
2018-01-14T03:29:18.635Z,90.63
2018-01-14T03:31:11.998Z,91.00
2018-01-14T03:32:11.811Z,90.72
2018-01-14T03:34:05.190Z,90.91
2018-01-14T03:35:04.986Z,90.91
2018-01-14T03:36:58.244Z,91.10
2018-01-14T03:37:58.152Z,90.81
2018-01-14T03:39:51.514Z,90.63
2018-01-14T03:40:51.314Z,90.44
2018-01-14T03:42:44.583Z,90.81
2018-01-14T03:43:44.491Z,90.53
2018-01-14T03:45:37.744Z,90.34
2018-01-14T03:46:37.666Z,90.06
2018-01-14T03:48:30.937Z,90.15
2018-01-14T03:49:30.845Z,90.34
2018-01-14T03:51:24.082Z,91.10
2018-01-14T03:52:24.008Z,90.91
2018-01-14T03:54:17.276Z,90.53
2018-01-14T03:55:17.183Z,90.34
2018-01-14T03:57:10.563Z,90.53
2018-01-14T03:58:10.350Z,90.91
2018-01-14T04:00:03.712Z,91.10
2018-01-14T04:01:03.513Z,90.77
2018-01-14T04:02:56.783Z,90.81
2018-01-14T04:03:56.689Z,90.67
2018-01-14T04:05:49.940Z,90.72
2018-01-14T04:06:49.865Z,90.81
2018-01-14T04:08:43.132Z,90.67
2018-01-14T04:09:43.042Z,90.67
2018-01-14T04:11:36.381Z,90.58
2018-01-14T04:12:36.311Z,91.00
2018-01-14T04:14:29.573Z,90.25
2018-01-14T04:15:29.482Z,90.06
2018-01-14T04:17:22.861Z,90.11
2018-01-14T04:18:22.655Z,90.30
2018-01-14T04:20:15.900Z,90.20
2018-01-14T04:21:15.820Z,90.25
2018-01-14T04:23:09.198Z,90.15
2018-01-14T04:24:08.996Z,90.20
2018-01-14T04:26:02.357Z,89.92
2018-01-14T04:27:02.165Z,89.54
2018-01-14T04:28:55.439Z,89.25
2018-01-14T04:29:55.345Z,90.20
2018-01-14T04:31:48.594Z,89.35
2018-01-14T04:32:48.520Z,89.20
2018-01-14T04:34:41.903Z,89.44
2018-01-14T04:35:41.696Z,89.25
2018-01-14T04:37:34.966Z,89.44
2018-01-14T04:38:34.870Z,89.73
2018-01-14T04:40:28.124Z,89.06
2018-01-14T04:41:28.046Z,89.25
2018-01-14T04:43:21.316Z,89.35
2018-01-14T04:44:21.223Z,89.54
2018-01-14T04:46:14.584Z,88.68
2018-01-14T04:47:14.401Z,88.73
2018-01-14T04:49:07.670Z,88.68
2018-01-14T04:50:07.578Z,88.78
2018-01-14T04:52:00.831Z,88.59
2018-01-14T04:53:00.757Z,88.87
2018-01-14T04:54:54.024Z,88.78
2018-01-14T04:55:53.930Z,88.40
2018-01-14T04:57:47.200Z,88.59
2018-01-14T04:58:47.105Z,88.78
2018-01-14T05:00:40.380Z,88.97
2018-01-14T05:01:40.306Z,88.59
2018-01-14T05:03:33.571Z,88.40
2018-01-14T05:04:33.479Z,88.31
2018-01-14T05:06:26.731Z,88.40
2018-01-14T05:07:26.661Z,88.49
2018-01-14T05:09:19.925Z,88.49
2018-01-14T05:10:19.832Z,88.49
2018-01-14T05:12:13.083Z,88.59
2018-01-14T05:13:13.012Z,88.78
2018-01-14T05:15:06.275Z,88.78
2018-01-14T05:16:06.182Z,88.49
2018-01-14T05:17:59.451Z,88.31
2018-01-14T05:18:59.355Z,88.78
2018-01-14T05:20:52.606Z,88.59
2018-01-14T05:21:52.545Z,88.78
2018-01-14T05:23:45.800Z,88.12
2018-01-14T05:24:45.707Z,88.49
2018-01-14T05:26:39.069Z,88.31
2018-01-14T05:27:38.885Z,88.87
2018-01-14T05:29:32.255Z,88.78
2018-01-14T05:30:32.049Z,88.87
2018-01-14T05:32:25.300Z,88.31
2018-01-14T05:33:25.223Z,88.49
2018-01-14T05:35:18.491Z,87.84
2018-01-14T05:36:18.400Z,88.02
2018-01-14T05:38:11.668Z,88.31
2018-01-14T05:39:11.577Z,88.21
2018-01-14T05:41:04.826Z,88.21
2018-01-14T05:42:04.752Z,88.21
2018-01-14T05:43:58.019Z,88.21
2018-01-14T05:44:57.924Z,88.21
2018-01-14T05:46:51.286Z,88.40
2018-01-14T05:47:51.101Z,88.21
2018-01-14T05:49:44.482Z,88.68
2018-01-14T05:50:44.307Z,88.40
2018-01-14T05:52:37.558Z,88.59
2018-01-14T05:53:37.480Z,88.21
2018-01-14T05:55:30.748Z,87.84
2018-01-14T05:56:30.657Z,87.74
2018-01-14T05:58:23.912Z,88.12
2018-01-14T05:59:23.818Z,88.40
2018-01-14T06:01:17.073Z,87.65
2018-01-14T06:02:16.997Z,87.65
2018-01-14T06:04:10.267Z,87.93
2018-01-14T06:05:10.172Z,88.21
2018-01-14T06:07:03.428Z,87.84
2018-01-14T06:08:03.344Z,87.46
2018-01-14T06:09:56.605Z,87.74
2018-01-14T06:10:56.513Z,87.84
2018-01-14T06:12:49.874Z,87.65
2018-01-14T06:13:49.688Z,87.74
2018-01-14T06:15:42.966Z,88.02
2018-01-14T06:16:42.881Z,87.84
2018-01-14T06:18:36.141Z,87.55
2018-01-14T06:19:36.047Z,87.74
2018-01-14T06:21:29.286Z,87.65
2018-01-14T06:22:29.211Z,87.55
2018-01-14T06:24:22.477Z,87.46
2018-01-14T06:25:22.386Z,87.46
2018-01-14T06:27:15.637Z,88.31
2018-01-14T06:28:15.561Z,88.31
2018-01-14T06:30:08.820Z,88.31
2018-01-14T06:31:08.726Z,87.84
2018-01-14T06:33:01.981Z,88.31
2018-01-14T06:34:01.893Z,88.12
2018-01-14T06:35:55.283Z,87.93
2018-01-14T06:36:55.076Z,88.12
2018-01-14T06:38:48.395Z,88.21
2018-01-14T06:39:48.305Z,88.21
2018-01-14T06:41:41.554Z,87.65
2018-01-14T06:42:41.478Z,87.74
2018-01-14T06:44:34.747Z,86.89
2018-01-14T06:45:34.656Z,87.36
2018-01-14T06:47:28.018Z,87.65
2018-01-14T06:48:27.830Z,87.17
2018-01-14T06:50:21.085Z,87.55
2018-01-14T06:51:20.996Z,87.46
2018-01-14T06:53:14.247Z,87.55
2018-01-14T06:54:14.171Z,87.46
2018-01-14T06:56:07.552Z,87.46
2018-01-14T06:57:07.343Z,87.27
2018-01-14T06:59:00.724Z,87.08
2018-01-14T07:00:00.520Z,87.74
2018-01-14T07:01:53.768Z,87.27
2018-01-14T07:02:53.694Z,87.36
2018-01-14T07:04:46.968Z,87.08
2018-01-14T07:05:46.877Z,87.36
2018-01-14T07:07:40.131Z,87.08
2018-01-14T07:08:40.053Z,87.17
2018-01-14T07:10:33.322Z,87.36
2018-01-14T07:11:33.228Z,87.55
2018-01-14T07:13:26.589Z,87.65
2018-01-14T07:14:26.404Z,87.46
2018-01-14T07:16:19.678Z,86.98
2018-01-14T07:17:19.584Z,87.55
2018-01-14T07:19:12.850Z,87.08
2018-01-14T07:20:12.758Z,86.98
2018-01-14T07:22:06.003Z,86.89
2018-01-14T07:23:05.933Z,87.46
2018-01-14T07:24:59.199Z,87.17
2018-01-14T07:25:59.106Z,87.27
2018-01-14T07:27:52.377Z,86.98
2018-01-14T07:28:52.305Z,87.27
2018-01-14T07:30:45.584Z,87.36
2018-01-14T07:31:45.493Z,87.36
2018-01-14T07:33:38.849Z,87.08
2018-01-14T07:34:38.664Z,86.89
2018-01-14T07:36:32.045Z,87.65
2018-01-14T07:37:31.845Z,87.08
2018-01-14T07:39:25.097Z,87.55
2018-01-14T07:40:25.007Z,87.46
2018-01-14T07:42:18.255Z,87.27
2018-01-14T07:43:18.181Z,87.55
2018-01-14T07:45:11.449Z,87.08
2018-01-14T07:46:11.360Z,87.08
2018-01-14T07:48:04.608Z,87.55
2018-01-14T07:49:04.529Z,87.08
2018-01-14T07:50:57.797Z,86.98
2018-01-14T07:51:57.701Z,86.98
2018-01-14T07:53:50.954Z,86.89
2018-01-14T07:54:50.878Z,87.36
2018-01-14T07:56:44.266Z,86.79
2018-01-14T07:57:44.054Z,86.98
2018-01-14T07:59:37.312Z,87.27
2018-01-14T08:00:37.219Z,87.46
2018-01-14T08:02:30.468Z,87.46
2018-01-14T08:03:30.391Z,87.08
2018-01-14T08:05:23.664Z,87.08
2018-01-14T08:06:23.567Z,87.36
2018-01-14T08:08:16.817Z,87.46
2018-01-14T08:09:16.742Z,87.08
2018-01-14T08:11:10.122Z,87.36
2018-01-14T08:12:09.920Z,86.98
2018-01-14T08:14:03.196Z,86.89
2018-01-14T08:15:03.095Z,87.27
2018-01-14T08:16:56.362Z,87.46
2018-01-14T08:17:56.270Z,87.55
2018-01-14T08:19:49.652Z,87.65
2018-01-14T08:20:49.436Z,87.17
2018-01-14T08:22:42.798Z,87.08
2018-01-14T08:23:42.612Z,87.46
2018-01-14T08:25:35.884Z,87.27
2018-01-14T08:26:35.786Z,86.79
2018-01-14T08:28:29.034Z,87.17
2018-01-14T08:29:28.958Z,87.74
2018-01-14T08:31:22.229Z,87.27
2018-01-14T08:32:22.137Z,87.46
2018-01-14T08:34:15.432Z,87.46
2018-01-14T08:35:15.313Z,87.46
2018-01-14T08:37:08.582Z,87.65
2018-01-14T08:38:08.489Z,87.55
2018-01-14T08:40:01.754Z,86.70
2018-01-14T08:41:01.664Z,87.27
2018-01-14T08:42:54.911Z,87.08
2018-01-14T08:43:54.836Z,87.17
2018-01-14T08:45:48.105Z,87.17
2018-01-14T08:46:48.012Z,87.74
2018-01-14T08:48:41.373Z,87.55
2018-01-14T08:49:41.185Z,87.36
2018-01-14T08:51:34.560Z,87.17
2018-01-14T08:52:34.359Z,86.89
2018-01-14T08:54:27.722Z,87.74
2018-01-14T08:55:27.537Z,87.27
2018-01-14T08:57:20.802Z,87.17
2018-01-14T08:58:20.712Z,87.55
2018-01-14T09:00:13.970Z,87.74
2018-01-14T09:01:13.877Z,87.55
2018-01-14T09:03:07.242Z,87.46
2018-01-14T09:04:07.052Z,87.08
2018-01-14T09:06:00.319Z,87.55
2018-01-14T09:07:00.226Z,87.74
2018-01-14T09:08:53.587Z,87.08
2018-01-14T09:09:53.400Z,87.55
2018-01-14T09:11:46.672Z,87.46
2018-01-14T09:12:46.575Z,87.55
2018-01-14T09:14:39.827Z,87.55
2018-01-14T09:15:39.750Z,86.98
2018-01-14T09:17:33.026Z,87.46
2018-01-14T09:18:32.928Z,87.17
2018-01-14T09:20:26.187Z,87.17
2018-01-14T09:21:26.100Z,87.17
2018-01-14T09:23:19.464Z,87.08
2018-01-14T09:24:19.309Z,87.27
2018-01-14T09:26:12.576Z,87.27
2018-01-14T09:27:12.489Z,86.98
2018-01-14T09:29:05.737Z,87.08
2018-01-14T09:30:05.663Z,86.98
2018-01-14T09:32:00.039Z,86.70
2018-01-14T09:32:59.833Z,87.36
2018-01-14T09:34:53.084Z,87.74
2018-01-14T09:35:53.009Z,87.17
2018-01-14T09:37:46.279Z,87.08
2018-01-14T09:38:46.187Z,86.89
2018-01-14T09:40:39.613Z,87.08
2018-01-14T09:41:39.362Z,86.83
2018-01-14T09:43:32.621Z,87.27
2018-01-14T09:44:32.534Z,87.12
2018-01-14T09:46:25.810Z,86.98
2018-01-14T09:47:25.715Z,87.02
2018-01-14T09:49:18.964Z,87.12
2018-01-14T09:50:18.891Z,86.55
2018-01-14T09:52:12.160Z,86.55
2018-01-14T09:53:12.067Z,86.27
2018-01-14T09:55:05.381Z,85.51
2018-01-14T09:56:05.308Z,85.51
2018-01-14T09:57:58.574Z,86.27
2018-01-14T09:58:58.482Z,86.18
2018-01-14T10:00:51.755Z,85.51
2018-01-14T10:01:51.661Z,85.61
2018-01-14T10:03:44.912Z,85.70
2018-01-14T10:04:44.839Z,85.42
2018-01-14T10:06:39.107Z,85.23
2018-01-14T10:07:39.016Z,85.04
2018-01-14T10:09:32.255Z,85.13
2018-01-14T10:10:32.180Z,85.13
2018-01-14T10:12:25.447Z,84.19
2018-01-14T10:13:25.357Z,84.00
2018-01-14T10:15:18.608Z,83.81
2018-01-14T10:16:18.535Z,83.90
2018-01-14T10:18:11.800Z,83.14
2018-01-14T10:19:11.710Z,83.24
2018-01-14T10:21:04.984Z,83.14
2018-01-14T10:22:04.889Z,83.14
2018-01-14T10:23:59.134Z,83.14
2018-01-14T10:24:59.063Z,83.05
2018-01-14T10:26:52.332Z,83.24
2018-01-14T10:27:52.238Z,83.24
2018-01-14T10:29:45.485Z,83.18
2018-01-14T10:30:45.414Z,83.37
2018-01-14T10:32:38.680Z,82.76
2018-01-14T10:33:38.591Z,83.05
2018-01-14T10:35:31.835Z,82.90
2018-01-14T10:36:31.759Z,83.18
2018-01-14T10:38:25.036Z,83.09
2018-01-14T10:39:24.951Z,83.28
2018-01-14T10:41:18.223Z,82.62
2018-01-14T10:42:18.142Z,83.18
2018-01-14T10:44:11.385Z,83.24
2018-01-14T10:45:11.311Z,83.09
2018-01-14T10:47:04.578Z,83.43
2018-01-14T10:48:04.489Z,83.81
2018-01-14T10:49:57.728Z,83.52
2018-01-14T10:50:57.655Z,83.94
2018-01-14T10:52:51.036Z,82.90
2018-01-14T10:53:50.832Z,82.76
2018-01-14T10:55:44.084Z,83.43
2018-01-14T10:56:44.014Z,83.43
2018-01-14T10:58:37.278Z,83.24
2018-01-14T10:59:37.189Z,83.33
2018-01-14T11:01:30.455Z,83.00
2018-01-14T11:02:30.369Z,83.18
2018-01-14T11:04:23.729Z,82.81
2018-01-14T11:05:23.542Z,82.62
2018-01-14T11:07:16.815Z,82.71
2018-01-14T11:08:16.721Z,82.52
2018-01-14T11:10:09.978Z,82.24
2018-01-14T11:11:09.903Z,81.95
2018-01-14T11:13:03.296Z,81.20
2018-01-14T11:14:03.090Z,81.20
2018-01-14T11:15:56.445Z,81.10
2018-01-14T11:16:56.266Z,81.20
2018-01-14T11:18:49.533Z,81.29
2018-01-14T11:19:49.470Z,81.10
2018-01-14T11:21:42.715Z,80.25
2018-01-14T11:22:42.621Z,80.91
2018-01-14T11:24:35.877Z,80.72
2018-01-14T11:25:35.806Z,80.06
2018-01-14T11:27:29.074Z,80.63
2018-01-14T11:28:28.989Z,80.82
2018-01-14T11:30:22.348Z,80.91
2018-01-14T11:31:22.165Z,80.91
2018-01-14T11:33:15.546Z,80.15
2018-01-14T11:34:15.344Z,80.44
2018-01-14T11:36:08.594Z,79.96
2018-01-14T11:37:08.528Z,79.77
2018-01-14T11:39:01.831Z,80.06
2018-01-14T11:40:01.712Z,80.06
2018-01-14T11:41:54.973Z,80.25
2018-01-14T11:42:54.883Z,80.34
2018-01-14T11:44:48.138Z,79.96
2018-01-14T11:45:48.064Z,80.06
2018-01-14T11:47:41.416Z,80.06
2018-01-14T11:48:41.321Z,80.06
2018-01-14T11:50:34.573Z,79.21
2018-01-14T11:51:34.504Z,79.39
2018-01-14T11:53:27.772Z,79.02
2018-01-14T11:54:27.682Z,78.73
2018-01-14T11:56:20.936Z,78.64
2018-01-14T11:57:20.862Z,78.73
2018-01-14T11:59:14.135Z,79.11
2018-01-14T12:00:14.041Z,78.92
2018-01-14T12:02:07.402Z,78.73
2018-01-14T12:03:07.308Z,78.64
2018-01-14T12:05:00.718Z,79.02
2018-01-14T12:06:00.494Z,77.88
2018-01-14T12:07:53.765Z,78.11
2018-01-14T12:08:53.673Z,78.20
2018-01-14T12:10:47.036Z,78.20
2018-01-14T12:11:46.852Z,77.92
2018-01-14T12:13:40.123Z,77.25
2018-01-14T12:14:40.031Z,77.03
2018-01-14T12:16:33.400Z,76.50
2018-01-14T12:17:33.306Z,75.84
2018-01-14T12:19:26.584Z,76.46
2018-01-14T12:20:26.488Z,76.08
2018-01-14T12:22:19.874Z,76.84
2018-01-14T12:23:19.679Z,76.93
2018-01-14T12:25:12.919Z,76.55
2018-01-14T12:26:12.857Z,76.40
2018-01-14T12:28:06.121Z,75.98
2018-01-14T12:29:06.025Z,76.36
2018-01-14T12:30:59.378Z,76.36
2018-01-14T12:31:59.307Z,76.46
2018-01-14T12:33:52.690Z,76.50
2018-01-14T12:34:52.487Z,76.40
2018-01-14T12:36:45.757Z,75.84
2018-01-14T12:37:45.676Z,75.74
2018-01-14T12:39:38.936Z,75.07
2018-01-14T12:40:38.845Z,74.41
2018-01-14T12:42:32.114Z,75.26
2018-01-14T12:43:32.022Z,75.17
2018-01-14T12:45:25.388Z,75.07
2018-01-14T12:46:25.310Z,74.69
2018-01-14T12:48:18.578Z,73.94
2018-01-14T12:49:18.488Z,74.51
2018-01-14T12:51:11.753Z,75.17
2018-01-14T12:52:11.681Z,74.98
2018-01-14T12:54:04.956Z,74.32
2018-01-14T12:55:04.859Z,74.32
2018-01-14T12:56:58.115Z,74.32
2018-01-14T12:57:58.044Z,74.60
2018-01-14T12:59:51.402Z,75.36
2018-01-14T13:00:51.309Z,74.51
2018-01-14T13:02:44.577Z,74.79
2018-01-14T13:03:44.491Z,74.60
2018-01-14T13:05:37.736Z,74.03
2018-01-14T13:06:37.665Z,73.75
2018-01-14T13:08:31.053Z,74.22
2018-01-14T13:09:30.849Z,74.22
2018-01-14T13:11:24.101Z,73.94
2018-01-14T13:12:24.027Z,73.46
2018-01-14T13:14:17.398Z,74.03
2018-01-14T13:15:17.307Z,73.84
2018-01-14T13:17:10.691Z,74.13
2018-01-14T13:18:10.488Z,74.22
2018-01-14T13:20:03.755Z,73.84
2018-01-14T13:21:03.661Z,74.03
2018-01-14T13:22:56.938Z,73.75
2018-01-14T13:23:56.840Z,73.46
2018-01-14T13:25:50.091Z,73.37
2018-01-14T13:26:50.018Z,73.37
2018-01-14T13:28:43.290Z,73.56
2018-01-14T13:29:43.197Z,73.46
2018-01-14T13:31:36.443Z,73.46
2018-01-14T13:32:36.377Z,73.27
2018-01-14T13:34:29.742Z,73.65
2018-01-14T13:35:29.560Z,73.46
2018-01-14T13:37:22.832Z,73.75
2018-01-14T13:38:22.738Z,73.84
2018-01-14T13:40:16.004Z,73.46
2018-01-14T13:41:15.920Z,73.56
2018-01-14T13:43:09.194Z,73.94
2018-01-14T13:44:09.096Z,73.27
2018-01-14T13:46:02.349Z,73.46
2018-01-14T13:47:02.290Z,72.89
2018-01-14T13:48:55.549Z,72.89
2018-01-14T13:49:55.458Z,73.46
2018-01-14T13:51:48.821Z,73.08
2018-01-14T13:52:48.640Z,72.89
2018-01-14T13:54:41.908Z,72.80
2018-01-14T13:55:41.819Z,72.89
2018-01-14T13:57:35.089Z,72.89
2018-01-14T13:58:34.991Z,73.08
2018-01-14T14:00:28.248Z,72.89
2018-01-14T14:01:28.175Z,72.52
2018-01-14T14:03:21.448Z,71.85
2018-01-14T14:04:21.362Z,71.85
2018-01-14T14:06:14.721Z,71.28
2018-01-14T14:07:14.538Z,70.90
2018-01-14T14:09:07.812Z,70.53
2018-01-14T14:10:07.720Z,70.15
2018-01-14T14:12:00.973Z,70.24
2018-01-14T14:13:00.901Z,70.15
2018-01-14T14:14:54.170Z,70.53
2018-01-14T14:15:54.077Z,70.53
2018-01-14T14:17:47.466Z,70.34
2018-01-14T14:18:47.306Z,70.53
2018-01-14T14:20:40.558Z,70.05
2018-01-14T14:21:40.485Z,70.34
2018-01-14T14:23:33.759Z,70.15
2018-01-14T14:24:33.668Z,70.05
2018-01-14T14:26:26.918Z,70.53
2018-01-14T14:27:26.843Z,70.24
2018-01-14T14:29:20.120Z,70.34
2018-01-14T14:30:20.034Z,69.67
2018-01-14T14:32:13.393Z,70.24
2018-01-14T14:33:13.309Z,69.77
2018-01-14T14:35:06.695Z,69.77
2018-01-14T14:36:06.486Z,69.86
2018-01-14T14:37:59.737Z,69.96
2018-01-14T14:38:59.664Z,69.67
2018-01-14T14:40:52.932Z,70.24
2018-01-14T14:41:52.844Z,70.24
2018-01-14T14:43:46.115Z,69.96
2018-01-14T14:44:46.019Z,69.96
2018-01-14T14:46:39.378Z,69.96
2018-01-14T14:47:39.306Z,70.53
2018-01-14T14:49:32.640Z,70.43
2018-01-14T14:50:32.480Z,70.24
2018-01-14T14:52:25.726Z,70.72
2018-01-14T14:53:25.657Z,70.53
2018-01-14T14:55:19.042Z,70.72
2018-01-14T14:56:18.842Z,70.43
2018-01-14T14:58:12.096Z,70.24
2018-01-14T14:59:12.019Z,70.53
2018-01-14T15:01:05.292Z,71.09
2018-01-14T15:02:05.195Z,70.90
2018-01-14T15:03:58.476Z,71.38
2018-01-14T15:04:58.380Z,71.44
2018-01-14T15:06:51.642Z,71.06
2018-01-14T15:07:51.570Z,71.34
2018-01-14T15:09:45.006Z,71.76
2018-01-14T15:10:44.749Z,71.81
2018-01-14T15:12:38.001Z,71.85
2018-01-14T15:13:37.930Z,72.00
2018-01-14T15:15:31.200Z,72.48
2018-01-14T15:16:31.107Z,72.38
2018-01-14T15:18:24.354Z,72.48
2018-01-14T15:19:24.283Z,73.05
2018-01-14T15:21:17.552Z,72.57
2018-01-14T15:22:17.461Z,72.67
2018-01-14T15:24:10.848Z,72.96
2018-01-14T15:25:10.650Z,73.24
2018-01-14T15:27:03.897Z,73.52
2018-01-14T15:28:03.823Z,73.43
2018-01-14T15:29:57.091Z,73.71
2018-01-14T15:30:57.000Z,73.90
2018-01-14T15:32:50.256Z,73.80
2018-01-14T15:33:50.190Z,74.09
2018-01-14T15:35:43.566Z,73.61
2018-01-14T15:36:43.370Z,73.80
2018-01-14T15:38:36.732Z,74.09
2018-01-14T15:39:36.548Z,74.09
2018-01-14T15:41:29.823Z,74.66
2018-01-14T15:42:29.727Z,74.09
2018-01-14T15:44:22.998Z,74.18
2018-01-14T15:45:22.905Z,74.47
2018-01-14T15:47:16.165Z,74.47
2018-01-14T15:48:16.084Z,74.18
2018-01-14T15:50:09.397Z,73.90
2018-01-14T15:51:09.310Z,74.47
2018-01-14T15:53:03.671Z,74.56
2018-01-14T15:54:03.484Z,74.37
2018-01-14T15:55:56.758Z,74.56
2018-01-14T15:56:56.666Z,75.13
2018-01-14T15:58:49.912Z,74.95
2018-01-14T15:59:49.842Z,75.23
2018-01-14T16:01:43.115Z,75.23
2018-01-14T16:02:43.019Z,74.95
2018-01-14T16:04:36.407Z,75.79
2018-01-14T16:05:36.201Z,75.51
2018-01-14T16:07:29.447Z,75.51
2018-01-14T16:08:29.375Z,75.70
2018-01-14T16:10:22.648Z,76.27
2018-01-14T16:11:22.555Z,75.32
2018-01-14T16:13:16.810Z,75.79
2018-01-14T16:14:16.734Z,76.36
2018-01-14T16:16:10.007Z,76.36
2018-01-14T16:17:09.914Z,75.89
2018-01-14T16:19:03.165Z,76.36
2018-01-14T16:20:03.086Z,76.17
2018-01-14T16:21:56.362Z,76.80
2018-01-14T16:22:56.272Z,76.93
2018-01-14T16:24:49.548Z,76.61
2018-01-14T16:25:49.453Z,77.65
2018-01-14T16:27:42.698Z,77.56
2018-01-14T16:28:42.625Z,77.65
2018-01-14T16:30:35.896Z,78.50
2018-01-14T16:31:35.807Z,78.22
2018-01-14T16:33:29.064Z,78.31
2018-01-14T16:34:28.985Z,78.13
2018-01-14T16:36:22.366Z,78.13
2018-01-14T16:37:22.165Z,78.22
2018-01-14T16:39:15.525Z,78.13
2018-01-14T16:40:15.341Z,78.13
2018-01-14T16:42:08.624Z,78.13
2018-01-14T16:43:08.520Z,78.41
2018-01-14T16:45:01.790Z,78.13
2018-01-14T16:46:01.700Z,78.03
2018-01-14T16:47:54.950Z,78.13
2018-01-14T16:48:54.880Z,78.41
2018-01-14T16:50:48.146Z,78.31
2018-01-14T16:51:48.056Z,78.22
2018-01-14T16:53:41.381Z,78.13
2018-01-14T16:54:41.304Z,78.22
2018-01-14T16:56:34.576Z,78.41
2018-01-14T16:57:34.484Z,78.31
2018-01-14T16:59:27.725Z,78.31
2018-01-14T17:00:27.652Z,78.31
2018-01-14T17:02:20.924Z,78.69
2018-01-14T17:03:20.833Z,78.69
2018-01-14T17:05:14.946Z,78.59
2018-01-14T17:06:14.854Z,78.69
2018-01-14T17:08:08.103Z,78.79
2018-01-14T17:09:08.036Z,79.17
2018-01-14T17:11:01.398Z,79.07
2018-01-14T17:12:01.306Z,78.98
2018-01-14T17:13:54.555Z,79.26
2018-01-14T17:14:54.485Z,79.36
2018-01-14T17:16:47.752Z,79.64
2018-01-14T17:17:47.658Z,79.55
2018-01-14T17:19:40.912Z,80.02
2018-01-14T17:20:40.836Z,80.21
2018-01-14T17:22:34.217Z,80.21
2018-01-14T17:23:34.015Z,80.21
2018-01-14T17:25:27.393Z,80.07
2018-01-14T17:26:27.182Z,80.55
2018-01-14T17:28:20.438Z,80.64
2018-01-14T17:29:20.365Z,80.36
2018-01-14T17:31:13.633Z,80.26
2018-01-14T17:32:13.539Z,80.93
2018-01-14T17:34:06.791Z,81.02
2018-01-14T17:35:06.712Z,81.02
2018-01-14T17:36:59.971Z,80.93
2018-01-14T17:37:59.871Z,81.30
2018-01-14T17:39:53.123Z,81.40
2018-01-14T17:40:53.046Z,82.06
2018-01-14T17:42:46.317Z,81.77
2018-01-14T17:43:46.223Z,81.87
2018-01-14T17:45:39.491Z,81.96
2018-01-14T17:46:39.398Z,81.96
2018-01-14T17:48:32.757Z,82.06
2018-01-14T17:49:32.563Z,82.34
2018-01-14T17:51:25.833Z,82.34
2018-01-14T17:52:25.739Z,81.77
2018-01-14T17:54:18.988Z,82.06
2018-01-14T17:55:18.915Z,82.15
2018-01-14T17:57:12.185Z,82.53
2018-01-14T17:58:12.091Z,82.15
2018-01-14T18:00:05.450Z,82.82
2018-01-14T18:01:05.309Z,82.82
2018-01-14T18:02:58.689Z,82.63
2018-01-14T18:03:58.481Z,82.72
2018-01-14T18:05:51.746Z,83.10
2018-01-14T18:06:51.657Z,83.01
2018-01-14T18:08:44.910Z,83.20
2018-01-14T18:09:44.835Z,83.29
2018-01-14T18:11:38.113Z,83.01
2018-01-14T18:12:38.012Z,83.01
2018-01-14T18:14:31.377Z,82.91
2018-01-14T18:15:31.173Z,83.67
2018-01-14T18:17:24.435Z,83.86
2018-01-14T18:18:24.339Z,83.86
2018-01-14T18:20:17.587Z,83.95
2018-01-14T18:21:17.513Z,84.14
2018-01-14T18:23:10.894Z,84.52
2018-01-14T18:24:10.679Z,84.52
2018-01-14T18:26:04.064Z,84.23
2018-01-14T18:27:03.854Z,84.42
2018-01-14T18:28:57.093Z,84.33
2018-01-14T18:29:57.021Z,85.00
2018-01-14T18:31:50.274Z,84.81
2018-01-14T18:32:50.184Z,85.00
2018-01-14T18:34:43.431Z,84.90